Hauptseite
METAR-TAF:

METAR-TAF

Flughäfen :

Sønderborg, Dänemark

Flughafen Sønderborg

Breite: 54-58N, Länge: 009-47E, Höhe: 7 m

Beobachtung

Neuester Wetterbericht von vor 39 Minuten, um 10:50 UTC
Wind 11 kt aus West/Nordwest
Temperatur 8°C
Luftfeuchtigkeit 81%
Luftdruck 1030 hPa
Sichtweite 10 km oder mehr
Durchbrochene Bewölkung in der Höhe von 1500 ft

METAR: EKSB 251050Z 29011KT 9999 BKN015 08/05 Q1030

Zeit: 12:29 (11:29 UTC)

Prognose

Neuester Wetterbericht von vor 2 Stunden und 49 Minuten, um 08:40 UTC
Gültige Prognose vom 25 um 09 UTC bis 25 um 17 UTC
Wind 12 kt aus West/Nordwest
Sichtweite 10 km oder mehr
Aufgelockert bewölkt in der Höhe von 2000 ft
Zeitweise
vom 25 um 09 UTC bis 25 um 11 UTC
Durchbrochene Bewölkung in der Höhe von 1200 ft

TAF: EKSB 250840Z 2509/2517 30012KT 9999 SCT020 TEMPO 2509/2511 BKN012

Wetterbeobachtungen und Prognosen von mehr als 4000 Flughäfen (METAR und TAF Bericht).

Die verfügbaren Stationen werden durch gelbe und rote Markierungen auf der Karte dargestellt.

Führen Sie die Maus auf sie, um den Namen der Station zu sehen.

Darauf klicken, um die Beobachtung von Wetterbeobachtungen und Prognosen zu sehen.

Um die Karte zu ändern : klicken Sie auf den grünen Tasten mit einem schwarzen Kreuz Zum Vergrößern, auf den grünen Button mit einem Gedankenstrich zu verkleinern, oder auf die grünen Pfeile für benachbarte Karten.


METAR-TAF: